createdAt,value
2022-10-10T00:00:25.528Z,12.78
2022-10-10T00:02:55.067Z,12.75
2022-10-10T00:05:24.567Z,12.75
2022-10-10T00:07:54.072Z,12.73
2022-10-10T00:10:23.564Z,12.70
2022-10-10T00:12:53.554Z,12.69
2022-10-10T00:15:25.928Z,12.63
2022-10-10T00:17:55.550Z,12.62
2022-10-10T00:20:25.047Z,12.57
2022-10-10T00:22:54.516Z,12.57
2022-10-10T00:25:24.393Z,12.58
2022-10-10T00:27:53.864Z,12.53
2022-10-10T00:30:25.952Z,12.53
2022-10-10T00:32:55.463Z,12.49
2022-10-10T00:35:24.922Z,12.44
2022-10-10T00:37:54.417Z,12.42
2022-10-10T00:40:24.020Z,12.39
2022-10-10T00:42:53.883Z,12.37
2022-10-10T00:45:29.100Z,12.36
2022-10-10T00:48:00.045Z,12.34
2022-10-10T00:50:29.600Z,12.30
2022-10-10T00:52:59.090Z,12.30
2022-10-10T00:55:28.570Z,12.30
2022-10-10T00:57:58.099Z,12.31
2022-10-10T01:00:30.116Z,12.30
2022-10-10T01:02:59.573Z,12.27
2022-10-10T01:05:29.037Z,12.26
2022-10-10T01:07:58.553Z,12.25
2022-10-10T01:10:28.005Z,12.22
2022-10-10T01:13:06.880Z,12.20
2022-10-10T01:15:44.606Z,12.16
2022-10-10T01:18:21.341Z,12.14
2022-10-10T01:20:58.922Z,12.13
2022-10-10T01:24:10.946Z,12.08
2022-10-10T01:27:10.567Z,12.06
2022-10-10T01:29:45.334Z,12.07
2022-10-10T01:32:16.784Z,12.03
2022-10-10T01:34:51.160Z,11.99
2022-10-10T01:37:21.719Z,11.94
2022-10-10T01:39:55.841Z,11.93
2022-10-10T01:42:27.499Z,11.90
2022-10-10T01:44:59.718Z,11.90
2022-10-10T01:47:29.262Z,11.80
2022-10-10T01:50:00.159Z,11.79
2022-10-10T01:52:39.096Z,11.77
2022-10-10T01:55:20.626Z,11.75
2022-10-10T01:57:55.551Z,11.72
2022-10-10T02:00:27.778Z,11.65
2022-10-10T02:02:59.963Z,11.64
2022-10-10T02:05:31.721Z,11.58
2022-10-10T02:08:03.308Z,11.55
2022-10-10T02:10:34.823Z,11.55
2022-10-10T02:13:04.913Z,11.57
2022-10-10T02:15:39.576Z,11.55
2022-10-10T02:18:09.086Z,11.56
2022-10-10T02:20:38.548Z,11.48
2022-10-10T02:23:08.022Z,11.51
2022-10-10T02:25:39.465Z,11.50
2022-10-10T02:28:10.281Z,11.51
2022-10-10T02:30:43.021Z,11.43
2022-10-10T02:33:12.529Z,11.43
2022-10-10T02:35:44.008Z,11.41
2022-10-10T02:38:17.874Z,11.41
2022-10-10T02:40:47.971Z,11.37
2022-10-10T02:43:17.742Z,11.35
2022-10-10T02:45:49.750Z,11.29
2022-10-10T02:48:19.252Z,11.19
2022-10-10T02:50:48.715Z,11.19
2022-10-10T02:53:18.219Z,11.14
2022-10-10T02:55:47.685Z,11.15
2022-10-10T02:58:17.151Z,11.12
2022-10-10T03:00:49.335Z,11.19
2022-10-10T03:03:18.816Z,11.18
2022-10-10T03:05:48.237Z,11.14
2022-10-10T03:08:17.750Z,11.15
2022-10-10T03:10:56.903Z,11.06
2022-10-10T03:13:26.429Z,11.03
2022-10-10T03:15:58.456Z,10.99
2022-10-10T03:18:27.972Z,10.88
2022-10-10T03:20:58.129Z,10.89
2022-10-10T03:23:27.765Z,10.88
2022-10-10T03:25:57.221Z,10.86
2022-10-10T03:28:26.888Z,10.92
2022-10-10T03:30:58.976Z,10.90
2022-10-10T03:33:28.538Z,10.90
2022-10-10T03:35:58.020Z,10.90
2022-10-10T03:38:27.501Z,10.87
2022-10-10T03:40:56.935Z,10.85
2022-10-10T03:43:26.393Z,10.81
2022-10-10T03:45:55.855Z,10.75
2022-10-10T03:48:27.924Z,10.71
2022-10-10T03:50:57.374Z,10.68
2022-10-10T03:53:26.844Z,10.63
2022-10-10T03:55:56.423Z,10.63
2022-10-10T03:58:25.931Z,10.65
2022-10-10T04:00:58.659Z,10.60
2022-10-10T04:03:30.743Z,10.64
2022-10-10T04:06:00.312Z,10.57
2022-10-10T04:08:30.613Z,10.40
2022-10-10T04:11:00.093Z,10.44
2022-10-10T04:13:29.691Z,10.52
2022-10-10T04:15:59.589Z,10.55
2022-10-10T04:18:31.617Z,10.55
2022-10-10T04:21:01.096Z,10.54
2022-10-10T04:23:30.542Z,10.55
2022-10-10T04:26:00.060Z,10.55
2022-10-10T04:28:29.592Z,10.57
2022-10-10T04:30:59.107Z,10.57
2022-10-10T04:33:31.176Z,10.54
2022-10-10T04:36:00.661Z,10.52
2022-10-10T04:38:31.018Z,10.51
2022-10-10T04:41:00.481Z,10.50
2022-10-10T04:43:29.958Z,10.51
2022-10-10T04:45:59.936Z,10.47
2022-10-10T04:48:32.011Z,10.53
2022-10-10T04:51:01.794Z,10.51
2022-10-10T04:53:31.287Z,10.50
2022-10-10T04:56:00.745Z,10.44
2022-10-10T04:58:30.365Z,10.39
2022-10-10T05:00:59.870Z,10.39
2022-10-10T05:03:32.036Z,10.32
2022-10-10T05:06:01.520Z,10.22
2022-10-10T05:08:30.960Z,10.19
2022-10-10T05:11:00.795Z,10.17
2022-10-10T05:13:30.328Z,10.08
2022-10-10T05:16:00.807Z,9.97
2022-10-10T05:18:32.840Z,9.99
2022-10-10T05:21:03.883Z,10.05
2022-10-10T05:23:33.520Z,10.14
2022-10-10T05:26:03.088Z,10.17
2022-10-10T05:28:35.350Z,10.16
2022-10-10T05:31:04.968Z,10.09
2022-10-10T05:33:37.444Z,10.11
2022-10-10T05:36:08.770Z,10.09
2022-10-10T05:38:38.362Z,10.10
2022-10-10T05:41:08.280Z,10.07
2022-10-10T05:43:37.949Z,10.03
2022-10-10T05:46:07.760Z,10.05
2022-10-10T05:48:39.826Z,10.11
2022-10-10T05:51:09.990Z,10.14
2022-10-10T05:53:39.475Z,10.15
2022-10-10T05:56:10.030Z,10.12
2022-10-10T05:58:39.500Z,10.12
2022-10-10T06:01:09.674Z,10.10
2022-10-10T06:03:41.738Z,10.11
2022-10-10T06:06:11.564Z,10.09
2022-10-10T06:08:41.038Z,10.09
2022-10-10T06:11:11.145Z,10.16
2022-10-10T06:13:40.690Z,10.27
2022-10-10T06:16:10.271Z,10.40
2022-10-10T06:18:42.449Z,10.49
2022-10-10T06:21:13.165Z,10.58
2022-10-10T06:23:42.641Z,10.65
2022-10-10T06:26:12.147Z,10.69
2022-10-10T06:28:41.718Z,10.75
2022-10-10T06:31:11.735Z,10.83
2022-10-10T06:33:45.539Z,10.93
2022-10-10T06:36:15.825Z,11.03
2022-10-10T06:38:46.557Z,11.12
2022-10-10T06:41:16.064Z,11.12
2022-10-10T06:43:45.518Z,11.08
2022-10-10T06:46:15.036Z,10.92
2022-10-10T06:48:47.174Z,10.36
2022-10-10T06:51:17.676Z,9.93
2022-10-10T06:53:47.386Z,10.26
2022-10-10T06:56:26.272Z,10.62
2022-10-10T06:58:56.760Z,10.85
2022-10-10T07:01:27.007Z,11.03
2022-10-10T07:03:59.072Z,11.09
2022-10-10T07:06:32.511Z,11.09
2022-10-10T07:09:04.155Z,10.96
2022-10-10T07:11:33.643Z,10.89
2022-10-10T07:14:03.177Z,10.70
2022-10-10T07:16:34.082Z,10.97
2022-10-10T07:19:06.178Z,11.41
2022-10-10T07:21:35.770Z,11.55
2022-10-10T07:24:05.362Z,11.98
2022-10-10T07:26:38.212Z,12.35
2022-10-10T07:29:08.239Z,12.68
2022-10-10T07:31:37.823Z,12.89
2022-10-10T07:34:10.931Z,12.89
2022-10-10T07:36:40.667Z,12.72
2022-10-10T07:39:15.003Z,12.33
2022-10-10T07:41:47.060Z,12.15
2022-10-10T07:44:16.776Z,11.77
2022-10-10T07:46:46.236Z,11.66
2022-10-10T07:49:18.376Z,11.92
2022-10-10T07:51:47.849Z,12.27
2022-10-10T07:54:17.323Z,12.45
2022-10-10T07:56:46.784Z,12.53
2022-10-10T07:59:16.260Z,12.49
2022-10-10T08:01:46.009Z,12.54
2022-10-10T08:04:18.149Z,12.53
2022-10-10T08:06:48.316Z,12.44
2022-10-10T08:09:18.121Z,12.22
2022-10-10T08:11:47.658Z,11.95
2022-10-10T08:14:17.175Z,11.56
2022-10-10T08:16:47.633Z,12.03
2022-10-10T08:19:19.986Z,12.48
2022-10-10T08:21:49.505Z,12.39
2022-10-10T08:24:18.966Z,12.97
2022-10-10T08:26:48.482Z,13.58
2022-10-10T08:29:17.932Z,14.02
2022-10-10T08:31:47.380Z,14.41
2022-10-10T08:34:19.843Z,14.69
2022-10-10T08:36:49.300Z,14.85
2022-10-10T08:39:19.204Z,15.00
2022-10-10T08:41:50.982Z,15.20
2022-10-10T08:44:23.523Z,15.45
2022-10-10T08:46:54.503Z,15.55
2022-10-10T08:49:29.768Z,15.61
2022-10-10T08:52:02.826Z,15.14
2022-10-10T08:54:32.450Z,15.45
2022-10-10T08:57:02.788Z,15.95
2022-10-10T08:59:34.017Z,16.24
2022-10-10T09:02:20.061Z,16.31
2022-10-10T09:04:53.604Z,16.52
2022-10-10T09:07:27.711Z,16.41
2022-10-10T09:10:01.586Z,16.62
2022-10-10T09:12:33.242Z,16.85
2022-10-10T09:15:05.646Z,16.99
2022-10-10T09:17:41.228Z,16.85
2022-10-10T09:20:24.552Z,16.61
2022-10-10T09:22:55.729Z,16.94
2022-10-10T09:25:25.499Z,16.71
2022-10-10T09:27:59.977Z,16.97
2022-10-10T09:30:29.837Z,16.97
2022-10-10T09:33:01.633Z,17.41
2022-10-10T09:35:35.798Z,17.60
2022-10-10T09:38:21.556Z,17.33
2022-10-10T09:40:51.754Z,17.37
2022-10-10T09:43:21.995Z,17.68
2022-10-10T09:45:53.550Z,17.58
2022-10-10T09:48:23.140Z,17.30
2022-10-10T09:50:55.415Z,17.67
2022-10-10T09:53:25.047Z,18.16
2022-10-10T09:55:54.622Z,18.47
2022-10-10T09:58:29.123Z,18.09
2022-10-10T10:00:58.940Z,18.02
2022-10-10T10:03:28.681Z,17.92
2022-10-10T10:06:02.160Z,18.19
2022-10-10T10:08:32.417Z,18.62
2022-10-10T10:11:02.223Z,18.83
2022-10-10T10:13:33.195Z,18.95
2022-10-10T10:16:08.142Z,19.11
2022-10-10T10:18:42.580Z,18.34
2022-10-10T10:21:20.425Z,18.31
2022-10-10T10:23:58.075Z,18.49
2022-10-10T10:26:30.071Z,18.75
2022-10-10T10:29:00.350Z,19.06
2022-10-10T10:31:42.565Z,19.34
2022-10-10T10:34:23.935Z,19.55
2022-10-10T10:36:57.868Z,19.60
2022-10-10T10:39:37.868Z,19.75
2022-10-10T10:42:11.624Z,19.85
2022-10-10T10:44:43.236Z,19.86
2022-10-10T10:47:26.221Z,20.01
2022-10-10T10:50:01.444Z,20.19
2022-10-10T10:52:46.054Z,20.33
2022-10-10T10:55:20.166Z,19.97
2022-10-10T11:01:28.666Z,20.02
2022-10-10T11:05:16.303Z,19.93
2022-10-10T11:07:17.359Z,20.22
2022-10-10T11:09:50.436Z,20.47
2022-10-10T11:12:26.990Z,20.52
2022-10-10T11:14:59.367Z,20.70
2022-10-10T11:17:36.281Z,20.96
2022-10-10T11:20:09.813Z,21.21
2022-10-10T11:22:41.172Z,21.30
2022-10-10T11:25:17.963Z,20.93
2022-10-10T11:27:49.716Z,20.73
2022-10-10T11:30:20.086Z,20.98
2022-10-10T11:32:52.946Z,21.42
2022-10-10T11:35:33.176Z,21.54
2022-10-10T11:38:04.655Z,21.70
2022-10-10T11:40:46.104Z,21.87
2022-10-10T11:43:18.386Z,21.86
2022-10-10T11:46:01.938Z,21.93
2022-10-10T11:48:37.851Z,22.07
2022-10-10T11:51:11.744Z,22.05
2022-10-10T11:53:45.917Z,21.86
2022-10-10T11:56:21.170Z,21.60
2022-10-10T11:58:53.747Z,21.14
2022-10-10T12:01:25.303Z,20.99
2022-10-10T12:03:57.259Z,21.24
2022-10-10T12:06:28.128Z,21.68
2022-10-10T12:09:01.733Z,22.01
2022-10-10T12:11:35.774Z,22.32
2022-10-10T12:14:05.351Z,22.50
2022-10-10T12:16:36.302Z,22.49
2022-10-10T12:19:08.973Z,22.47
2022-10-10T12:21:55.298Z,22.77
2022-10-10T12:24:24.788Z,22.92
2022-10-10T12:27:28.161Z,23.03
2022-10-10T12:30:24.803Z,22.96
2022-10-10T12:32:55.366Z,23.01
2022-10-10T12:35:48.921Z,22.94
2022-10-10T12:38:23.717Z,23.03
2022-10-10T12:41:16.774Z,23.09
2022-10-10T12:43:52.300Z,23.13
2022-10-10T12:46:30.992Z,23.02
2022-10-10T12:49:05.656Z,22.46
2022-10-10T12:51:37.328Z,22.38
2022-10-10T12:54:08.340Z,22.40
2022-10-10T12:56:40.267Z,22.71
2022-10-10T12:59:22.287Z,23.06
2022-10-10T13:01:54.760Z,22.94
2022-10-10T13:04:24.454Z,23.23
2022-10-10T13:06:55.744Z,23.48
2022-10-10T13:09:28.084Z,23.77
2022-10-10T13:12:01.458Z,23.79
2022-10-10T13:14:40.894Z,23.80
2022-10-10T13:17:25.366Z,23.94
2022-10-10T13:19:55.060Z,23.77
2022-10-10T13:22:24.567Z,23.48
2022-10-10T13:24:54.068Z,23.61
2022-10-10T13:27:24.618Z,23.58
2022-10-10T13:29:56.876Z,23.69
2022-10-10T13:32:27.970Z,23.99
2022-10-10T13:34:59.205Z,24.19
2022-10-10T13:37:28.726Z,24.29
2022-10-10T13:39:58.241Z,24.29
2022-10-10T13:42:36.015Z,24.31
2022-10-10T13:45:32.109Z,24.12
2022-10-10T13:48:15.388Z,24.38
2022-10-10T13:51:09.882Z,24.23
2022-10-10T13:53:53.413Z,24.51
2022-10-10T13:56:25.352Z,24.65
2022-10-10T13:58:55.473Z,24.82
2022-10-10T14:01:32.220Z,24.37
2022-10-10T14:04:04.758Z,24.25
2022-10-10T14:06:34.363Z,24.06
2022-10-10T14:09:10.382Z,24.10
2022-10-10T14:11:39.882Z,24.12
2022-10-10T14:14:10.971Z,24.17
2022-10-10T14:16:43.076Z,24.29
2022-10-10T14:19:17.485Z,24.30
2022-10-10T14:21:46.952Z,24.26
2022-10-10T14:24:16.417Z,24.23
2022-10-10T14:26:45.907Z,24.22
2022-10-10T14:29:15.980Z,24.28
2022-10-10T14:31:48.454Z,24.35
2022-10-10T14:34:17.994Z,24.43
2022-10-10T14:36:50.085Z,24.47
2022-10-10T14:39:20.255Z,24.43
2022-10-10T14:41:49.919Z,24.31
2022-10-10T14:44:19.465Z,24.20
2022-10-10T14:46:51.551Z,24.15
2022-10-10T14:49:22.047Z,24.19
2022-10-10T14:51:51.529Z,24.18
2022-10-10T14:54:20.980Z,24.17
2022-10-10T14:57:08.860Z,24.19
2022-10-10T14:59:47.543Z,24.15
2022-10-10T15:02:22.100Z,24.04
2022-10-10T15:04:51.757Z,23.90
2022-10-10T15:07:21.335Z,23.91
2022-10-10T15:10:26.086Z,23.94
2022-10-10T15:12:41.440Z,23.96
2022-10-10T15:15:14.543Z,24.01
2022-10-10T15:17:47.788Z,24.02
2022-10-10T15:20:17.259Z,23.80
2022-10-10T15:22:46.752Z,23.45
2022-10-10T15:25:16.385Z,22.91
2022-10-10T15:27:46.006Z,22.51
2022-10-10T15:30:16.274Z,22.48
2022-10-10T15:32:48.346Z,22.78
2022-10-10T15:35:18.936Z,22.95
2022-10-10T15:37:48.632Z,22.99
2022-10-10T15:40:19.774Z,23.01
2022-10-10T15:42:49.283Z,22.99
2022-10-10T15:45:37.408Z,22.97
2022-10-10T15:48:10.985Z,22.94
2022-10-10T15:50:44.281Z,22.88
2022-10-10T15:53:13.822Z,22.82
2022-10-10T15:55:46.540Z,22.79
2022-10-10T15:58:16.388Z,22.73
2022-10-10T16:00:46.287Z,22.72
2022-10-10T16:03:18.398Z,22.69
2022-10-10T16:05:47.888Z,22.67
2022-10-10T16:08:18.906Z,22.63
2022-10-10T16:10:48.191Z,22.62
2022-10-10T16:13:17.709Z,22.58
2022-10-10T16:15:47.177Z,22.58
2022-10-10T16:18:19.249Z,22.54
2022-10-10T16:20:48.718Z,22.50
2022-10-10T16:23:18.191Z,22.44
2022-10-10T16:25:47.679Z,22.38
2022-10-10T16:28:17.245Z,22.08
2022-10-10T16:30:46.748Z,21.92
2022-10-10T16:33:18.924Z,22.04
2022-10-10T16:35:48.386Z,22.11
2022-10-10T16:38:17.897Z,22.12
2022-10-10T16:40:47.461Z,22.06
2022-10-10T16:43:17.097Z,21.89
2022-10-10T16:45:46.611Z,21.77
2022-10-10T16:48:16.055Z,21.67
2022-10-10T16:50:48.147Z,21.55
2022-10-10T16:53:17.915Z,21.49
2022-10-10T16:55:47.381Z,21.42
2022-10-10T16:58:16.838Z,21.25
2022-10-10T17:00:46.467Z,21.10
2022-10-10T17:03:15.962Z,21.03
2022-10-10T17:05:48.319Z,20.94
2022-10-10T17:08:18.042Z,20.86
2022-10-10T17:10:47.499Z,20.80
2022-10-10T17:13:16.990Z,20.63
2022-10-10T17:15:46.454Z,20.41
2022-10-10T17:18:17.410Z,20.28
2022-10-10T17:20:49.177Z,20.06
2022-10-10T17:23:19.455Z,20.00
2022-10-10T17:25:49.398Z,19.92
2022-10-10T17:28:18.961Z,19.77
2022-10-10T17:30:50.038Z,19.49
2022-10-10T17:33:19.423Z,19.18
2022-10-10T17:35:52.155Z,19.08
2022-10-10T17:38:39.258Z,19.08
2022-10-10T17:41:10.079Z,19.12
2022-10-10T17:43:39.608Z,18.98
2022-10-10T17:46:33.240Z,18.92
2022-10-10T17:48:59.443Z,18.94
2022-10-10T17:51:31.485Z,18.88
2022-10-10T17:54:01.563Z,18.62
2022-10-10T17:56:31.431Z,18.60
2022-10-10T17:59:02.024Z,18.69
2022-10-10T18:01:31.773Z,18.71
2022-10-10T18:04:01.980Z,18.71
2022-10-10T18:06:34.232Z,18.56
2022-10-10T18:09:03.817Z,18.48
2022-10-10T18:11:33.655Z,18.38
2022-10-10T18:14:03.129Z,18.21
2022-10-10T18:16:33.920Z,18.19
2022-10-10T18:19:03.460Z,18.16
2022-10-10T18:21:35.512Z,18.03
2022-10-10T18:24:05.165Z,18.12
2022-10-10T18:26:35.044Z,18.00
2022-10-10T18:29:04.536Z,17.98
2022-10-10T18:31:35.311Z,18.01
2022-10-10T18:34:05.137Z,18.06
2022-10-10T18:36:38.659Z,18.14
2022-10-10T18:39:09.206Z,18.23
2022-10-10T18:41:38.659Z,18.14
2022-10-10T18:44:09.154Z,18.18
2022-10-10T18:46:38.720Z,18.14
2022-10-10T18:49:09.138Z,18.06
2022-10-10T18:51:43.142Z,18.01
2022-10-10T18:54:14.281Z,17.98
2022-10-10T18:56:43.973Z,17.79
2022-10-10T18:59:14.790Z,17.67
2022-10-10T19:01:45.746Z,17.68
2022-10-10T19:04:15.329Z,17.67
2022-10-10T19:06:47.371Z,17.66
2022-10-10T19:09:17.665Z,17.57
2022-10-10T19:11:48.083Z,17.50
2022-10-10T19:14:19.005Z,17.54
2022-10-10T19:16:48.917Z,17.47
2022-10-10T19:19:19.520Z,17.32
2022-10-10T19:21:53.014Z,17.31
2022-10-10T19:24:23.471Z,17.35
2022-10-10T19:26:55.883Z,17.29
2022-10-10T19:29:25.792Z,17.23
2022-10-10T19:31:55.969Z,17.29
2022-10-10T19:34:25.701Z,17.32
2022-10-10T19:36:58.722Z,17.36
2022-10-10T19:39:28.271Z,17.33
2022-10-10T19:41:57.730Z,17.35
2022-10-10T19:44:27.313Z,17.32
2022-10-10T19:46:56.797Z,17.35
2022-10-10T19:49:26.504Z,17.29
2022-10-10T19:51:58.586Z,17.26
2022-10-10T19:54:28.115Z,17.20
2022-10-10T19:56:57.581Z,17.13
2022-10-10T19:59:27.066Z,17.25
2022-10-10T20:01:56.650Z,17.18
2022-10-10T20:04:26.189Z,17.26
2022-10-10T20:06:58.234Z,17.31
2022-10-10T20:09:29.399Z,17.19
2022-10-10T20:11:58.985Z,17.24
2022-10-10T20:14:28.658Z,17.30
2022-10-10T20:16:58.119Z,17.31
2022-10-10T20:19:27.562Z,17.34
2022-10-10T20:21:59.636Z,17.44
2022-10-10T20:24:29.050Z,17.43
2022-10-10T20:26:58.937Z,17.43
2022-10-10T20:29:28.392Z,17.34
2022-10-10T20:31:57.928Z,17.50
2022-10-10T20:34:27.395Z,17.42
2022-10-10T20:36:59.962Z,17.27
2022-10-10T20:39:29.394Z,17.16
2022-10-10T20:41:58.840Z,17.25
2022-10-10T20:44:28.311Z,17.38
2022-10-10T20:46:57.799Z,17.36
2022-10-10T20:49:27.387Z,17.45
2022-10-10T20:51:59.593Z,17.51
2022-10-10T20:54:29.064Z,17.57
2022-10-10T20:56:58.560Z,17.61
2022-10-10T20:59:29.248Z,17.64
2022-10-10T21:01:58.899Z,17.71
2022-10-10T21:04:28.390Z,17.77
2022-10-10T21:07:00.424Z,17.76
2022-10-10T21:09:30.011Z,17.63
2022-10-10T21:11:59.492Z,17.70
2022-10-10T21:14:28.994Z,17.66
2022-10-10T21:16:58.483Z,17.64
2022-10-10T21:19:27.994Z,17.58
2022-10-10T21:22:00.044Z,17.50
2022-10-10T21:24:29.551Z,17.40
2022-10-10T21:26:59.026Z,17.28
2022-10-10T21:29:28.466Z,17.25
2022-10-10T21:31:57.930Z,17.22
2022-10-10T21:34:27.382Z,17.14
2022-10-10T21:36:56.834Z,17.12
2022-10-10T21:39:29.242Z,16.97
2022-10-10T21:41:58.864Z,16.98
2022-10-10T21:44:28.410Z,16.98
2022-10-10T21:46:57.899Z,16.95
2022-10-10T21:49:27.390Z,16.89
2022-10-10T21:51:56.854Z,16.86
2022-10-10T21:54:28.913Z,16.90
2022-10-10T21:56:58.384Z,16.94
2022-10-10T21:59:31.663Z,16.91
2022-10-10T22:02:01.129Z,16.80
2022-10-10T22:04:30.584Z,16.77
2022-10-10T22:07:03.777Z,16.75
2022-10-10T22:09:35.834Z,16.70
2022-10-10T22:12:05.340Z,16.66
2022-10-10T22:14:34.880Z,16.64
2022-10-10T22:17:04.369Z,16.66
2022-10-10T22:19:33.842Z,16.62
2022-10-10T22:22:03.278Z,16.58
2022-10-10T22:24:35.340Z,16.48
2022-10-10T22:27:04.774Z,16.47
2022-10-10T22:29:34.201Z,16.49
2022-10-10T22:32:03.668Z,16.53
2022-10-10T22:34:33.068Z,16.43
2022-10-10T22:37:02.537Z,16.39
2022-10-10T22:39:32.135Z,16.37
2022-10-10T22:42:04.183Z,16.48
2022-10-10T22:44:33.652Z,16.54
2022-10-10T22:47:03.157Z,16.44
2022-10-10T22:49:34.930Z,16.48
2022-10-10T22:52:04.430Z,16.47
2022-10-10T22:54:33.923Z,16.49
2022-10-10T22:57:06.070Z,16.58
2022-10-10T22:59:35.535Z,16.61
2022-10-10T23:02:05.013Z,16.63
2022-10-10T23:04:34.471Z,16.63
2022-10-10T23:07:03.912Z,16.70
2022-10-10T23:09:33.689Z,16.63
2022-10-10T23:12:06.082Z,16.63
2022-10-10T23:14:35.675Z,16.70
2022-10-10T23:17:05.289Z,16.67
2022-10-10T23:19:34.757Z,16.64
2022-10-10T23:22:04.781Z,16.62
2022-10-10T23:24:34.242Z,16.60
2022-10-10T23:27:06.420Z,16.58
2022-10-10T23:29:36.239Z,16.57
2022-10-10T23:32:05.739Z,16.54
2022-10-10T23:34:35.476Z,16.54
2022-10-10T23:37:04.968Z,16.51
2022-10-10T23:39:34.423Z,16.55
2022-10-10T23:42:06.697Z,16.60
2022-10-10T23:44:36.171Z,16.52
2022-10-10T23:47:05.700Z,16.50
2022-10-10T23:49:35.185Z,16.48
2022-10-10T23:52:04.694Z,16.45
2022-10-10T23:54:34.172Z,16.42
2022-10-10T23:57:06.407Z,16.43
2022-10-10T23:59:35.988Z,16.34
